Time;durP1;ratioP1;P1;durP2;ratioP2;P2;SDS_P1;SDS_P2;PMS_P1;PMS_P2;Temp;Humidity;BMP_temperature;BMP_pressure;BME280_temperature;BME280_humidity;BME280_pressure;Samples;Min_cycle;Max_cycle;Signal;HPM_P1;HPM_P2
2023/09/09 00:02:22;;;;;;;10.38;8.52;;;;;;;20.10;64.53;100452.47;10232659;28;21403;-77
2023/09/09 00:07:25;;;;;;;11.65;8.18;;;;;;;19.97;64.86;100456.88;10227961;28;20625;-77
2023/09/09 00:12:28;;;;;;;11.40;8.55;;;;;;;19.93;65.14;100469.16;10228326;28;20126;-77
2023/09/09 00:17:32;;;;;;;13.55;8.50;;;;;;;19.90;64.85;100465.75;10226116;28;20058;-77
2023/09/09 00:22:35;;;;;;;11.80;8.07;;;;;;;19.82;65.35;100454.09;10247030;28;20756;-77
2023/09/09 00:27:38;;;;;;;8.60;7.47;;;;;;;19.85;65.09;100454.56;10230504;28;20226;-77
2023/09/09 00:32:43;;;;;;;9.57;8.20;;;;;;;19.92;64.92;100451.97;10241390;28;20043;-77
2023/09/09 00:37:46;;;;;;;10.65;7.80;;;;;;;19.78;65.41;100447.31;10233202;28;20054;-78
2023/09/09 00:42:49;;;;;;;8.07;7.00;;;;;;;19.82;65.14;100451.38;10230386;28;20622;-77
2023/09/09 00:47:53;;;;;;;8.50;7.57;;;;;;;19.97;64.63;100449.53;10217302;28;20047;-77
2023/09/09 00:52:56;;;;;;;8.88;7.45;;;;;;;19.96;64.65;100445.09;10240951;28;20059;-77
2023/09/09 00:57:59;;;;;;;8.57;7.65;;;;;;;19.87;64.60;100447.06;10227533;28;20105;-77
2023/09/09 01:03:05;;;;;;;14.00;7.50;;;;;;;19.74;64.87;100452.28;10230615;28;21589;-77
2023/09/09 01:08:08;;;;;;;9.13;8.23;;;;;;;19.45;65.77;100445.66;10228238;28;20059;-77
2023/09/09 01:13:11;;;;;;;8.70;7.88;;;;;;;19.51;65.44;100441.34;10220747;28;20559;-77
2023/09/09 01:18:17;;;;;;;9.65;8.05;;;;;;;19.56;65.20;100447.16;10223428;28;20050;-77
2023/09/09 01:23:22;;;;;;;8.60;7.40;;;;;;;19.38;65.70;100447.41;10229657;28;20091;-77
2023/09/09 01:28:25;;;;;;;9.25;7.70;;;;;;;19.38;65.87;100439.22;10236694;28;20550;-77
2023/09/09 01:33:28;;;;;;;12.00;8.35;;;;;;;19.43;65.48;100441.41;10225155;28;20474;-77
2023/09/09 01:38:34;;;;;;;9.25;8.25;;;;;;;19.28;65.88;100430.47;10232082;28;20051;-77
2023/09/09 01:43:37;;;;;;;9.43;7.82;;;;;;;19.27;65.97;100430.63;10247126;28;20087;-77
2023/09/09 01:48:41;;;;;;;11.63;8.57;;;;;;;19.27;65.98;100433.34;10229187;28;20116;-77
2023/09/09 01:53:45;;;;;;;9.30;8.32;;;;;;;19.22;66.06;100432.00;10228886;28;20915;-77
2023/09/09 01:58:48;;;;;;;10.25;7.80;;;;;;;19.20;66.02;100439.53;10225704;28;20047;-77
2023/09/09 02:03:51;;;;;;;8.57;7.78;;;;;;;19.13;66.36;100430.38;10218483;28;20043;-77
2023/09/09 02:08:56;;;;;;;9.45;8.55;;;;;;;19.05;66.24;100429.56;10245952;28;21240;-77
2023/09/09 02:13:59;;;;;;;8.75;7.95;;;;;;;19.14;66.10;100429.38;10224070;28;20058;-77
2023/09/09 02:19:03;;;;;;;10.52;8.13;;;;;;;19.08;66.22;100435.50;10224568;28;20141;-77
2023/09/09 02:24:08;;;;;;;8.63;7.65;;;;;;;19.12;66.00;100433.28;10229477;28;20044;-78
2023/09/09 02:29:10;;;;;;;8.63;7.72;;;;;;;19.01;66.18;100431.81;10222097;28;20434;-77
2023/09/09 02:34:13;;;;;;;8.00;7.03;;;;;;;18.96;66.20;100431.50;10225659;28;20427;-77
2023/09/09 02:39:18;;;;;;;10.23;7.78;;;;;;;18.92;66.32;100433.69;10228592;28;20438;-77
2023/09/09 02:44:21;;;;;;;10.13;8.07;;;;;;;18.91;66.59;100437.47;10242690;28;20054;-77
2023/09/09 02:49:24;;;;;;;10.25;7.40;;;;;;;18.98;66.10;100443.06;10237492;28;20053;-77
2023/09/09 02:54:28;;;;;;;12.05;8.10;;;;;;;18.93;66.23;100442.75;10216592;28;20058;-77
2023/09/09 02:59:33;;;;;;;10.45;7.90;;;;;;;18.85;66.16;100429.19;10228634;28;20051;-77
2023/09/09 03:04:39;;;;;;;12.13;8.40;;;;;;;18.73;66.60;100432.25;10220273;28;20134;-76
2023/09/09 03:09:45;;;;;;;8.82;7.90;;;;;;;18.54;67.35;100443.53;10243588;28;20264;-77
2023/09/09 03:14:49;;;;;;;15.07;8.73;;;;;;;18.48;67.65;100445.06;10227492;28;20050;-76
2023/09/09 03:19:52;;;;;;;10.80;7.95;;;;;;;18.56;67.37;100446.94;10231544;28;20053;-77
2023/09/09 03:24:56;;;;;;;10.88;7.90;;;;;;;18.46;67.73;100444.44;10239061;28;20051;-77
2023/09/09 03:29:59;;;;;;;9.85;8.77;;;;;;;18.43;67.72;100441.19;10225524;28;20185;-76
2023/09/09 03:35:03;;;;;;;10.13;8.73;;;;;;;18.32;68.15;100445.13;10227740;28;20074;-77
2023/09/09 03:40:08;;;;;;;10.90;8.80;;;;;;;18.44;68.05;100441.03;10233304;28;20588;-77
2023/09/09 03:45:12;;;;;;;11.82;9.27;;;;;;;18.43;68.08;100436.63;10224063;28;20055;-77
2023/09/09 03:50:15;;;;;;;12.52;9.57;;;;;;;18.26;68.38;100449.38;10229923;28;20173;-77
2023/09/09 03:55:20;;;;;;;12.25;8.77;;;;;;;18.20;68.68;100446.53;10228009;28;20050;-77
2023/09/09 04:00:23;;;;;;;15.52;9.25;;;;;;;18.12;69.16;100448.22;10223765;28;20398;-77
2023/09/09 04:05:26;;;;;;;13.68;9.38;;;;;;;17.99;69.58;100439.78;10216962;28;20047;-77
2023/09/09 04:10:30;;;;;;;14.48;10.20;;;;;;;17.94;69.72;100447.53;10224686;28;20570;-77
2023/09/09 04:15:33;;;;;;;12.35;9.18;;;;;;;17.97;69.92;100443.63;10223811;28;20087;-77
2023/09/09 04:20:36;;;;;;;11.63;9.13;;;;;;;17.93;69.74;100446.66;10244833;28;20463;-76
2023/09/09 04:25:41;;;;;;;15.30;10.35;;;;;;;17.88;70.22;100443.66;10251937;28;20518;-77
2023/09/09 04:30:45;;;;;;;11.35;10.13;;;;;;;17.91;70.13;100442.47;10222001;28;20054;-77
2023/09/09 04:35:50;;;;;;;13.57;10.45;;;;;;;17.84;70.20;100450.44;10236605;28;20070;-77
2023/09/09 04:40:54;;;;;;;14.15;10.57;;;;;;;17.80;70.31;100440.94;10234447;28;20134;-77
2023/09/09 04:45:58;;;;;;;12.82;10.18;;;;;;;17.79;70.48;100446.53;10219527;28;21196;-77
2023/09/09 04:51:01;;;;;;;13.57;10.27;;;;;;;17.68;70.71;100453.13;10233000;28;20047;-77
2023/09/09 04:56:05;;;;;;;12.45;9.70;;;;;;;17.77;70.60;100444.00;10241871;28;20146;-77
2023/09/09 05:01:09;;;;;;;12.40;10.48;;;;;;;17.85;70.39;100452.16;10239431;28;20145;-77
2023/09/09 05:06:12;;;;;;;12.63;10.40;;;;;;;17.82;70.26;100446.19;10224273;28;20109;-77
2023/09/09 05:11:16;;;;;;;13.43;8.48;;;;;;;18.07;70.84;100453.34;10223339;28;20043;-77
2023/09/09 05:16:19;;;;;;;11.02;8.82;;;;;;;18.48;69.14;100458.69;10234819;28;20051;-77
2023/09/09 05:21:22;;;;;;;9.93;8.90;;;;;;;18.61;67.86;100449.97;10217020;28;20054;-77
2023/09/09 05:26:27;;;;;;;10.48;8.35;;;;;;;18.63;67.64;100460.69;10214479;28;20051;-77
2023/09/09 05:31:30;;;;;;;15.18;9.15;;;;;;;18.75;67.55;100460.13;10215219;28;20078;-77
2023/09/09 05:36:36;;;;;;;11.77;8.82;;;;;;;18.89;66.62;100463.16;10239460;28;20051;-77
2023/09/09 05:41:40;;;;;;;12.70;9.60;;;;;;;18.85;66.86;100470.84;10243737;28;20094;-76
2023/09/09 05:46:44;;;;;;;11.48;9.82;;;;;;;18.62;67.13;100467.13;10219653;28;20122;-77
2023/09/09 05:51:48;;;;;;;13.48;9.88;;;;;;;18.35;68.34;100469.28;10248113;28;20055;-76
2023/09/09 05:56:52;;;;;;;12.45;10.38;;;;;;;18.29;69.11;100472.66;10243183;28;20051;-76
2023/09/09 06:01:55;;;;;;;13.50;10.45;;;;;;;18.34;69.05;100473.00;10251163;28;20062;-77
2023/09/09 06:06:59;;;;;;;11.85;10.18;;;;;;;18.48;69.05;100479.59;10235825;28;20090;-79
2023/09/09 06:12:04;;;;;;;11.65;10.45;;;;;;;18.50;68.78;100480.28;10238929;28;20061;-78
2023/09/09 06:17:08;;;;;;;13.63;11.20;;;;;;;18.61;68.41;100479.91;10267463;28;20085;-78
2023/09/09 06:22:11;;;;;;;11.70;10.50;;;;;;;18.49;68.67;100490.31;10289334;28;20058;-77
2023/09/09 06:27:15;;;;;;;14.75;11.77;;;;;;;18.44;69.22;100489.97;10260056;28;20118;-80
2023/09/09 06:32:18;;;;;;;12.88;11.45;;;;;;;18.65;68.68;100492.16;10231373;28;20055;-79
2023/09/09 06:37:24;;;;;;;12.05;10.85;;;;;;;19.13;67.93;100497.59;10242299;28;20055;-79
2023/09/09 06:42:29;;;;;;;11.07;9.90;;;;;;;19.30;67.08;100498.34;10232259;28;20062;-77
2023/09/09 06:47:35;;;;;;;12.15;9.50;;;;;;;19.62;66.48;100500.91;10229894;28;20047;-80
2023/09/09 06:52:38;;;;;;;11.75;10.05;;;;;;;19.77;65.65;100505.56;10233481;28;20061;-77
2023/09/09 06:57:42;;;;;;;11.43;10.27;;;;;;;19.98;64.87;100511.19;10245134;28;20518;-78
2023/09/09 07:02:45;;;;;;;12.65;10.68;;;;;;;20.18;64.05;100516.13;10243732;28;20051;-79
2023/09/09 07:07:48;;;;;;;13.52;10.55;;;;;;;20.44;63.69;100505.69;10241125;28;20050;-79
2023/09/09 07:12:53;;;;;;;12.93;10.63;;;;;;;20.92;62.69;100516.25;10246612;28;20085;-79
2023/09/09 07:17:56;;;;;;;11.75;10.02;;;;;;;21.42;60.93;100518.19;10240957;28;20063;-79
2023/09/09 07:22:59;;;;;;;13.00;10.40;;;;;;;21.54;60.08;100513.06;10254322;28;20147;-78
2023/09/09 07:28:04;;;;;;;11.07;9.45;;;;;;;21.74;59.92;100518.72;10245849;28;20051;-80
2023/09/09 07:33:06;;;;;;;11.23;9.70;;;;;;;22.09;59.50;100510.69;10226627;28;20055;-80
2023/09/09 07:38:09;;;;;;;11.15;9.85;;;;;;;22.27;58.76;100511.06;10229510;28;20057;-80
2023/09/09 07:43:14;;;;;;;10.68;9.57;;;;;;;22.49;58.55;100516.50;10242703;28;20047;-80
2023/09/09 07:48:17;;;;;;;10.52;9.52;;;;;;;22.98;57.71;100510.91;10234276;28;20047;-78
2023/09/09 07:53:21;;;;;;;13.23;10.20;;;;;;;23.34;57.11;100508.97;10250832;28;20047;-77
2023/09/09 07:58:25;;;;;;;11.02;9.32;;;;;;;23.64;55.89;100509.47;10255082;28;20119;-77
2023/09/09 08:03:28;;;;;;;11.70;9.50;;;;;;;24.15;55.03;100506.19;10260732;28;20038;-78
2023/09/09 08:08:31;;;;;;;8.45;7.63;;;;;;;24.40;54.25;100506.41;10256846;28;20043;-78
2023/09/09 08:13:36;;;;;;;10.77;9.32;;;;;;;24.66;53.78;100502.81;10253348;28;20051;-78
2023/09/09 08:18:39;;;;;;;9.88;8.85;;;;;;;25.12;53.04;100506.47;10241472;28;20130;-77
2023/09/09 08:23:42;;;;;;;9.95;9.05;;;;;;;25.35;52.18;100508.72;10233368;28;20042;-76
2023/09/09 08:28:46;;;;;;;8.82;7.57;;;;;;;25.57;52.42;100501.81;10258818;28;20047;-76
2023/09/09 08:33:49;;;;;;;8.90;7.88;;;;;;;26.26;51.01;100502.84;10277359;28;20089;-77
2023/09/09 08:38:56;;;;;;;11.23;7.53;;;;;;;26.19;50.50;100517.72;10277226;28;20039;-76
2023/09/09 08:44:09;;;;;;;7.78;6.97;;;;;;;26.59;49.06;100518.22;10270904;28;20107;-77
2023/09/09 08:49:14;;;;;;;8.15;7.43;;;;;;;26.89;48.94;100514.75;10229112;28;20043;-77
2023/09/09 08:54:18;;;;;;;10.48;5.85;;;;;;;26.95;47.82;100517.44;10231362;28;20035;-77
2023/09/09 08:59:23;;;;;;;9.90;6.35;;;;;;;27.33;47.63;100518.25;10237375;28;20050;-76
2023/09/09 09:04:28;;;;;;;7.55;6.40;;;;;;;27.63;46.90;100518.28;10226411;28;20087;-77
2023/09/09 09:09:31;;;;;;;8.63;6.32;;;;;;;27.96;46.95;100515.06;10256156;28;20078;-77
2023/09/09 09:14:45;;;;;;;6.25;5.70;;;;;;;28.16;47.33;100524.94;10255786;28;20047;-76
2023/09/09 09:19:48;;;;;;;7.82;5.95;;;;;;;28.61;46.23;100514.19;10274578;28;20055;-77
2023/09/09 09:24:51;;;;;;;8.77;6.70;;;;;;;28.62;45.42;100517.78;10267519;28;20114;-76
2023/09/09 09:29:55;;;;;;;14.32;5.90;;;;;;;28.87;45.62;100510.06;10251834;28;20087;-77
2023/09/09 09:34:58;;;;;;;6.03;5.43;;;;;;;29.30;44.45;100507.97;10244813;28;20055;-77
2023/09/09 09:40:04;;;;;;;8.23;6.25;;;;;;;29.71;44.36;100504.06;10249890;28;20446;-77
2023/09/09 09:45:12;;;;;;;8.75;5.60;;;;;;;29.98;44.06;100518.13;10221212;28;20058;-77
2023/09/09 09:50:19;;;;;;;8.75;6.00;;;;;;;29.94;42.20;100511.38;10223033;28;20047;-77
2023/09/09 09:55:22;;;;;;;9.93;5.53;;;;;;;30.14;41.97;100510.94;10228350;28;20520;-77
2023/09/09 10:00:27;;;;;;;6.93;5.47;;;;;;;30.66;40.87;100495.94;10234334;28;20046;-77
2023/09/09 10:05:31;;;;;;;6.88;5.55;;;;;;;30.65;40.27;100497.91;10231667;28;20178;-77
2023/09/09 10:10:37;;;;;;;6.18;5.55;;;;;;;30.98;39.34;100492.50;10218671;28;20090;-77
2023/09/09 10:15:43;;;;;;;8.75;5.57;;;;;;;30.69;39.63;100492.66;10227585;28;20046;-76
2023/09/09 10:20:46;;;;;;;7.25;5.32;;;;;;;31.38;38.62;100486.66;10225894;28;20047;-76
2023/09/09 10:25:51;;;;;;;6.75;4.85;;;;;;;31.75;37.91;100486.75;10238268;28;20134;-76
2023/09/09 10:30:56;;;;;;;6.85;4.80;;;;;;;31.37;37.55;100487.72;10218449;28;20062;-75
2023/09/09 10:36:00;;;;;;;5.40;4.90;;;;;;;32.30;36.21;100481.97;10222657;28;20054;-76
2023/09/09 10:41:03;;;;;;;5.72;4.60;;;;;;;32.37;36.34;100478.97;10222753;28;20117;-76
2023/09/09 10:46:09;;;;;;;5.55;4.68;;;;;;;32.37;35.73;100471.47;10224959;28;20062;-76
2023/09/09 10:51:15;;;;;;;6.80;4.72;;;;;;;32.56;35.88;100469.09;10227151;28;20137;-76
2023/09/09 10:56:24;;;;;;;6.20;4.88;;;;;;;33.32;35.27;100467.75;10218846;28;20069;-76
2023/09/09 11:01:28;;;;;;;5.60;4.70;;;;;;;34.40;33.43;100466.75;10221472;28;20048;-77
2023/09/09 11:06:31;;;;;;;6.25;5.13;;;;;;;35.48;33.20;100478.34;10220384;28;20545;-77
2023/09/09 11:11:37;;;;;;;5.50;4.63;;;;;;;35.90;31.88;100474.16;10222712;28;20666;-77
2023/09/09 11:16:43;;;;;;;5.88;4.78;;;;;;;36.08;30.64;100467.00;10220758;28;20536;-77
2023/09/09 11:21:47;;;;;;;5.85;4.72;;;;;;;36.35;30.73;100468.44;10225349;28;20061;-77
2023/09/09 11:26:51;;;;;;;4.40;4.00;;;;;;;36.63;31.11;100457.53;10233870;28;20051;-77
2023/09/09 11:31:56;;;;;;;4.72;4.32;;;;;;;36.21;30.32;100459.91;10230878;28;20066;-77
2023/09/09 11:37:00;;;;;;;6.38;4.75;;;;;;;36.01;31.14;100460.91;10232346;28;20054;-77
2023/09/09 11:42:04;;;;;;;5.28;4.78;;;;;;;36.22;32.20;100466.34;10243056;28;20082;-77
2023/09/09 11:47:09;;;;;;;6.80;4.93;;;;;;;36.06;30.89;100460.06;10243797;28;20057;-78
2023/09/09 11:52:12;;;;;;;5.82;5.03;;;;;;;36.69;30.25;100450.75;10245968;28;20062;-77
2023/09/09 11:57:15;;;;;;;5.38;4.97;;;;;;;36.97;30.98;100447.06;10242890;28;20418;-77
2023/09/09 12:02:20;;;;;;;5.68;5.15;;;;;;;37.36;29.64;100451.56;10241182;28;21267;-76
2023/09/09 12:07:27;;;;;;;5.05;4.65;;;;;;;36.36;29.83;100453.34;10243104;28;20578;-76
2023/09/09 12:12:31;;;;;;;5.38;4.97;;;;;;;34.64;32.34;100444.69;10244692;28;20490;-76
2023/09/09 12:17:35;;;;;;;7.28;4.60;;;;;;;35.61;32.08;100437.78;10249179;28;20047;-77
2023/09/09 12:22:46;;;;;;;4.70;4.30;;;;;;;35.75;29.77;100437.94;10254025;28;20043;-78
2023/09/09 12:27:49;;;;;;;;;;;;;;;35.63;30.43;100438.31;10240653;28;20137;-77
2023/09/09 12:32:54;;;;;;;5.50;4.70;;;;;;;36.18;30.08;100435.34;10238641;28;20667;-78
2023/09/09 12:37:58;;;;;;;4.68;4.28;;;;;;;36.70;30.79;100433.66;10242441;28;20057;-78
2023/09/09 12:43:09;;;;;;;4.82;4.35;;;;;;;36.40;29.12;100434.88;10250478;28;20070;-77
2023/09/09 12:48:14;;;;;;;4.95;4.53;;;;;;;36.81;29.90;100434.41;10241436;28;20070;-77
2023/09/09 12:53:17;;;;;;;4.60;4.20;;;;;;;37.37;27.99;100435.59;10254210;28;20505;-77
2023/09/09 12:58:20;;;;;;;4.57;4.18;;;;;;;35.64;29.13;100436.34;10252492;28;20047;-77
2023/09/09 13:03:24;;;;;;;4.90;4.22;;;;;;;36.32;30.56;100435.47;10247888;28;20078;-77
2023/09/09 13:08:27;;;;;;;5.35;4.50;;;;;;;35.85;29.61;100439.81;10238948;28;20047;-77
2023/09/09 13:13:30;;;;;;;4.63;4.25;;;;;;;36.00;28.95;100436.91;10254489;28;20063;-77
2023/09/09 13:18:35;;;;;;;5.03;4.63;;;;;;;36.15;28.98;100421.97;10238694;28;20054;-77
2023/09/09 13:23:38;;;;;;;6.45;4.47;;;;;;;35.35;30.48;100425.91;10247256;28;20062;-77
2023/09/09 13:28:41;;;;;;;5.20;4.45;;;;;;;35.56;29.28;100423.84;10233287;28;20110;-77
2023/09/09 13:33:45;;;;;;;8.15;5.15;;;;;;;35.93;29.63;100420.50;10230063;28;20054;-79
2023/09/09 13:38:48;;;;;;;10.80;5.90;;;;;;;36.59;28.75;100420.94;10236341;28;20054;-76
2023/09/09 13:43:51;;;;;;;7.65;5.95;;;;;;;35.24;29.30;100427.09;10234823;28;20047;-77
2023/09/09 13:48:56;;;;;;;6.95;5.57;;;;;;;35.37;29.87;100417.25;10239718;28;20415;-77
2023/09/09 13:53:59;;;;;;;7.93;5.43;;;;;;;33.76;32.31;100418.03;10239645;28;20050;-76
2023/09/09 13:59:02;;;;;;;10.38;6.03;;;;;;;34.83;31.09;100405.84;10236133;28;20063;-76
2023/09/09 14:04:07;;;;;;;12.38;5.90;;;;;;;35.65;31.64;100415.66;10236171;28;21044;-77
2023/09/09 14:09:10;;;;;;;7.93;5.60;;;;;;;35.91;29.95;100405.97;10232289;28;20047;-78
2023/09/09 14:14:13;;;;;;;8.70;5.75;;;;;;;35.48;30.69;100411.31;10230497;28;20101;-76
2023/09/09 14:19:18;;;;;;;10.98;6.40;;;;;;;33.99;31.99;100413.81;10227226;28;20051;-75
2023/09/09 14:24:21;;;;;;;7.95;5.57;;;;;;;33.68;32.22;100410.22;10230959;28;20046;-75
2023/09/09 14:29:23;;;;;;;8.00;5.50;;;;;;;35.19;31.98;100410.38;10248721;28;20043;-76
2023/09/09 14:34:28;;;;;;;7.15;5.75;;;;;;;36.16;31.26;100390.91;10229981;28;20386;-75
2023/09/09 14:39:30;;;;;;;6.80;5.82;;;;;;;36.07;30.67;100387.09;10228877;28;20057;-76
2023/09/09 14:44:33;;;;;;;9.20;6.00;;;;;;;35.95;31.40;100395.03;10226542;28;21230;-75
2023/09/09 14:49:39;;;;;;;9.30;5.32;;;;;;;36.16;31.08;100390.06;10222909;28;20062;-76
2023/09/09 14:54:43;;;;;;;9.90;5.63;;;;;;;35.35;30.19;100386.81;10225523;28;20047;-75
2023/09/09 14:59:46;;;;;;;8.68;5.50;;;;;;;33.58;33.07;100387.09;10223901;28;21171;-75
2023/09/09 15:04:50;;;;;;;9.63;6.05;;;;;;;34.62;32.96;100385.56;10220993;28;20525;-75
2023/09/09 15:09:53;;;;;;;12.23;5.72;;;;;;;35.48;32.04;100385.38;10226598;28;20181;-76
2023/09/09 15:14:56;;;;;;;12.35;5.70;;;;;;;35.45;31.81;100383.13;10240336;28;20058;-77
2023/09/09 15:20:00;;;;;;;15.88;6.57;;;;;;;34.42;32.00;100388.38;10222522;28;20130;-75
2023/09/09 15:25:07;;;;;;;12.95;7.35;;;;;;;33.46;33.58;100381.75;10224854;28;21281;-76
2023/09/09 15:30:11;;;;;;;13.65;5.88;;;;;;;33.95;32.74;100379.25;10219540;28;20092;-75
2023/09/09 15:35:15;;;;;;;13.68;5.70;;;;;;;34.57;33.29;100382.78;10224911;28;20051;-75
2023/09/09 15:40:18;;;;;;;10.82;5.45;;;;;;;34.23;33.15;100388.19;10225205;28;20051;-75
2023/09/09 15:45:21;;;;;;;14.73;5.25;;;;;;;33.47;33.71;100389.03;10224729;28;20057;-76
2023/09/09 15:50:25;;;;;;;15.07;6.47;;;;;;;33.80;33.47;100389.63;10223849;28;20507;-76
2023/09/09 15:55:29;;;;;;;12.23;5.72;;;;;;;34.45;33.81;100379.47;10224200;28;20058;-76
2023/09/09 16:00:32;;;;;;;16.02;5.95;;;;;;;34.57;33.32;100379.16;10224551;28;20426;-76
2023/09/09 16:05:37;;;;;;;10.68;5.72;;;;;;;34.47;33.82;100368.84;10226977;28;20250;-76
2023/09/09 16:10:39;;;;;;;9.25;5.80;;;;;;;34.24;34.34;100383.44;10231583;28;20054;-76
2023/09/09 16:15:42;;;;;;;10.05;5.40;;;;;;;33.68;33.51;100382.38;10230786;28;20051;-76
2023/09/09 16:20:47;;;;;;;13.50;6.35;;;;;;;33.00;34.10;100384.47;10245472;28;20046;-76
2023/09/09 16:25:52;;;;;;;14.07;6.30;;;;;;;32.58;35.48;100382.59;10233249;28;20055;-76
2023/09/09 16:30:55;;;;;;;14.10;6.07;;;;;;;32.97;36.58;100387.78;10235240;28;20062;-76
2023/09/09 16:36:02;;;;;;;13.07;5.95;;;;;;;32.92;37.46;100383.06;10234224;28;20189;-76
2023/09/09 16:41:05;;;;;;;15.73;6.30;;;;;;;32.41;37.78;100385.59;10232738;28;20055;-77
2023/09/09 16:46:08;;;;;;;12.00;5.68;;;;;;;32.36;38.60;100393.91;10232803;28;20078;-77
2023/09/09 16:51:13;;;;;;;11.95;5.55;;;;;;;32.09;39.30;100393.97;10231166;28;20123;-76
2023/09/09 16:56:16;;;;;;;14.30;5.90;;;;;;;31.29;39.91;100402.19;10229741;28;20047;-76
2023/09/09 17:01:19;;;;;;;10.38;5.90;;;;;;;30.98;41.03;100390.72;10228430;28;20161;-75
2023/09/09 17:06:24;;;;;;;10.38;5.75;;;;;;;30.52;42.05;100403.16;10233883;28;20082;-76
2023/09/09 17:11:27;;;;;;;8.63;5.43;;;;;;;30.28;42.31;100408.94;10230597;28;20084;-76
2023/09/09 17:16:30;;;;;;;13.55;6.25;;;;;;;29.85;42.73;100401.34;10232210;28;20047;-76
2023/09/09 17:21:35;;;;;;;8.15;6.22;;;;;;;29.49;44.06;100400.69;10242256;28;20081;-78
2023/09/09 17:26:38;;;;;;;23.48;12.27;;;;;;;29.13;44.65;100398.13;10226131;28;20078;-76
2023/09/09 17:31:41;;;;;;;14.27;8.07;;;;;;;28.77;43.88;100402.06;10227348;28;20059;-76
2023/09/09 17:36:45;;;;;;;14.90;6.68;;;;;;;28.27;44.34;100406.19;10230113;28;20055;-77
2023/09/09 17:41:51;;;;;;;10.95;6.35;;;;;;;28.14;44.86;100414.75;10229480;28;20055;-76
2023/09/09 17:46:54;;;;;;;10.10;6.78;;;;;;;27.89;45.19;100414.09;10226814;28;20057;-77
2023/09/09 17:51:58;;;;;;;13.00;6.82;;;;;;;27.58;45.74;100419.69;10222269;28;20055;-77
2023/09/09 17:57:02;;;;;;;12.40;7.00;;;;;;;27.30;46.18;100431.31;10228854;28;20067;-77
2023/09/09 18:02:05;;;;;;;12.48;6.53;;;;;;;27.23;46.46;100426.97;10225497;28;20718;-77
2023/09/09 18:07:09;;;;;;;13.70;6.85;;;;;;;27.00;46.49;100436.81;10229224;28;20062;-77
2023/09/09 18:12:12;;;;;;;9.70;6.72;;;;;;;27.04;46.71;100437.19;10225480;28;20433;-77
2023/09/09 18:17:15;;;;;;;10.07;7.07;;;;;;;27.01;46.85;100445.91;10224848;28;20051;-77
2023/09/09 18:22:19;;;;;;;13.10;7.13;;;;;;;26.92;47.33;100445.41;10252775;28;20059;-75
2023/09/09 18:27:23;;;;;;;12.38;7.75;;;;;;;26.79;47.75;100446.38;10239490;28;20070;-76
2023/09/09 18:32:27;;;;;;;12.95;7.35;;;;;;;26.64;48.72;100444.00;10238539;28;20146;-76
2023/09/09 18:37:31;;;;;;;13.73;7.95;;;;;;;26.51;49.01;100450.50;10239388;28;20058;-76
2023/09/09 18:42:35;;;;;;;14.98;8.30;;;;;;;26.34;49.63;100448.59;10235326;28;20664;-76
2023/09/09 18:47:38;;;;;;;12.82;8.23;;;;;;;26.14;50.40;100455.09;10229849;28;20047;-76
2023/09/09 18:52:43;;;;;;;13.23;8.15;;;;;;;26.01;50.66;100460.72;10233048;28;20043;-76
2023/09/09 18:57:46;;;;;;;16.60;8.77;;;;;;;25.89;51.09;100471.59;10232636;28;20058;-77
2023/09/09 19:02:54;;;;;;;11.45;8.20;;;;;;;25.78;51.29;100466.78;10233895;28;20087;-76
2023/09/09 19:07:59;;;;;;;14.80;9.10;;;;;;;25.76;51.50;100463.44;10244040;28;20055;-79
2023/09/09 19:13:02;;;;;;;15.82;9.50;;;;;;;25.58;51.72;100467.75;10265434;28;20586;-78
2023/09/09 19:18:06;;;;;;;15.07;8.95;;;;;;;25.63;52.02;100469.84;10238030;28;20482;-79
2023/09/09 19:23:12;;;;;;;16.50;9.57;;;;;;;25.41;52.49;100472.94;10253894;28;20106;-79
2023/09/09 19:28:16;;;;;;;12.68;9.50;;;;;;;25.24;52.57;100473.69;10263432;28;20063;-79
2023/09/09 19:33:19;;;;;;;15.80;9.77;;;;;;;25.18;52.98;100480.91;10256967;28;20798;-78
2023/09/09 19:38:24;;;;;;;19.45;8.90;;;;;;;25.18;52.94;100478.16;10249686;28;20510;-80
2023/09/09 19:43:27;;;;;;;12.52;9.40;;;;;;;25.02;53.22;100479.44;10279599;28;20104;-78
2023/09/09 19:48:31;;;;;;;12.93;11.27;;;;;;;24.96;53.46;100488.56;10257205;28;20066;-77
2023/09/09 19:53:36;;;;;;;13.10;9.07;;;;;;;24.84;54.17;100488.38;10259495;28;20157;-79
2023/09/09 19:58:39;;;;;;;17.80;10.43;;;;;;;24.92;54.12;100487.31;10263177;28;20051;-81
2023/09/09 20:03:45;;;;;;;15.98;9.18;;;;;;;24.73;54.66;100497.28;10268586;28;20047;-79
2023/09/09 20:08:50;;;;;;;19.17;12.93;;;;;;;23.18;60.51;100516.50;10262635;28;20131;-81
2023/09/09 20:13:53;;;;;;;15.25;10.48;;;;;;;23.12;61.02;100511.84;10267237;28;20046;-80
2023/09/09 20:18:57;;;;;;;15.93;11.15;;;;;;;23.49;60.43;100514.31;10262005;28;20074;-77
2023/09/09 20:24:01;;;;;;;20.17;11.20;;;;;;;23.79;59.44;100512.91;10260023;28;20051;-80
2023/09/09 20:29:05;;;;;;;20.42;11.85;;;;;;;23.86;59.49;100518.41;10261116;28;20047;-79
2023/09/09 20:34:09;;;;;;;16.05;11.30;;;;;;;23.88;59.09;100506.16;10258739;28;20054;-79
2023/09/09 20:39:14;;;;;;;17.98;12.80;;;;;;;23.75;59.72;100494.31;10256851;28;20144;-80
2023/09/09 20:44:17;;;;;;;15.13;11.88;;;;;;;23.74;59.95;100501.69;10258143;28;20075;-80
2023/09/09 20:49:20;;;;;;;18.80;12.02;;;;;;;23.63;59.73;100508.63;10247804;28;20329;-78
2023/09/09 20:54:25;;;;;;;15.80;12.40;;;;;;;23.49;60.29;100511.56;10243588;28;20148;-77
2023/09/09 20:59:27;;;;;;;17.20;11.20;;;;;;;23.54;60.25;100509.88;10245142;28;20125;-78
2023/09/09 21:04:30;;;;;;;23.45;11.43;;;;;;;23.67;59.75;100500.84;10247545;28;20051;-77
2023/09/09 21:09:34;;;;;;;17.25;11.82;;;;;;;23.62;59.95;100512.44;10241275;28;20055;-77
2023/09/09 21:14:37;;;;;;;15.40;10.68;;;;;;;23.41;60.72;100513.44;10242351;28;20059;-77
2023/09/09 21:19:40;;;;;;;14.23;10.18;;;;;;;23.16;60.91;100520.50;10238836;28;20059;-78
2023/09/09 21:24:44;;;;;;;17.52;10.18;;;;;;;23.14;61.53;100528.06;10246433;28;20101;-77
2023/09/09 21:29:47;;;;;;;15.75;10.45;;;;;;;23.14;61.46;100520.69;10237344;28;20101;-77
2023/09/09 21:34:50;;;;;;;16.63;10.27;;;;;;;23.11;61.15;100514.78;10241398;28;20588;-78
2023/09/09 21:39:55;;;;;;;13.95;10.90;;;;;;;22.86;61.96;100528.13;10242391;28;20056;-77
2023/09/09 21:44:58;;;;;;;16.88;11.82;;;;;;;22.81;62.63;100525.13;10242956;28;20055;-79
2023/09/09 21:50:01;;;;;;;17.95;12.25;;;;;;;22.85;62.76;100523.69;10245298;28;20435;-78
2023/09/09 21:55:06;;;;;;;14.80;11.68;;;;;;;22.74;63.02;100522.38;10239456;28;20078;-79
2023/09/09 22:00:19;;;;;;;15.50;11.85;;;;;;;22.62;63.61;100521.22;10240516;28;20055;-80
2023/09/09 22:05:22;;;;;;;22.40;11.35;;;;;;;22.42;64.06;100521.06;10240378;28;20051;-79
2023/09/09 22:10:27;;;;;;;15.43;11.15;;;;;;;22.45;64.35;100518.78;10251994;28;20075;-79
2023/09/09 22:15:30;;;;;;;17.05;11.65;;;;;;;22.40;64.03;100515.78;10241942;28;20051;-79
2023/09/09 22:20:35;;;;;;;21.08;14.60;;;;;;;22.36;63.67;100521.84;10234818;28;20162;-79
2023/09/09 22:25:39;;;;;;;23.75;15.93;;;;;;;22.12;64.19;100513.03;10232126;28;20051;-79
2023/09/09 22:30:43;;;;;;;19.02;15.27;;;;;;;22.05;64.54;100518.44;10235820;28;20054;-78
2023/09/09 22:35:49;;;;;;;23.67;15.43;;;;;;;22.15;64.07;100514.53;10268969;28;20113;-76
2023/09/09 22:40:54;;;;;;;20.40;15.43;;;;;;;21.67;65.88;100526.03;10256308;28;20086;-79
2023/09/09 22:45:57;;;;;;;16.38;13.55;;;;;;;21.47;66.24;100512.13;10261269;28;20081;-78
2023/09/09 22:51:00;;;;;;;20.73;14.77;;;;;;;21.53;65.80;100510.50;10248214;28;20080;-78
2023/09/09 22:56:04;;;;;;;21.35;14.15;;;;;;;21.23;66.52;100514.19;10241515;28;20047;-79
2023/09/09 23:01:07;;;;;;;17.88;14.43;;;;;;;21.24;66.78;100525.94;10236052;28;20050;-78